createdAt,value
2023-01-29T00:01:09.520Z,81.92
2023-01-29T00:03:35.909Z,82.36
2023-01-29T00:06:02.267Z,82.21
2023-01-29T00:08:28.619Z,82.11
2023-01-29T00:10:55.096Z,82.07
2023-01-29T00:13:21.495Z,82.07
2023-01-29T00:15:47.886Z,82.02
2023-01-29T00:18:14.377Z,81.73
2023-01-29T00:20:40.760Z,82.26
2023-01-29T00:23:07.139Z,82.19
2023-01-29T00:25:33.545Z,81.82
2023-01-29T00:27:59.957Z,81.82
2023-01-29T00:30:26.355Z,82.02
2023-01-29T00:32:52.752Z,82.31
2023-01-29T00:35:19.151Z,82.05
2023-01-29T00:37:45.738Z,81.76
2023-01-29T00:40:12.111Z,81.72
2023-01-29T00:42:38.492Z,81.85
2023-01-29T00:45:05.101Z,81.83
2023-01-29T00:47:31.462Z,81.62
2023-01-29T00:49:57.843Z,82.16
2023-01-29T00:52:24.255Z,81.88
2023-01-29T00:54:50.851Z,81.94
2023-01-29T00:57:17.256Z,81.96
2023-01-29T00:59:43.661Z,81.47
2023-01-29T01:02:10.085Z,81.66
2023-01-29T01:04:36.499Z,81.43
2023-01-29T01:07:02.872Z,81.40
2023-01-29T01:09:29.716Z,81.64
2023-01-29T01:11:56.079Z,81.54
2023-01-29T01:14:22.485Z,81.64
2023-01-29T01:16:48.855Z,81.60
2023-01-29T01:19:15.225Z,81.86
2023-01-29T01:21:41.603Z,81.75
2023-01-29T01:24:08.076Z,81.43
2023-01-29T01:26:34.476Z,81.48
2023-01-29T01:29:00.841Z,81.30
2023-01-29T01:31:27.470Z,81.43
2023-01-29T01:33:53.968Z,81.59
2023-01-29T01:36:20.338Z,81.82
2023-01-29T01:38:46.716Z,81.62
2023-01-29T01:41:13.116Z,81.98
2023-01-29T01:43:39.516Z,81.38
2023-01-29T01:46:06.156Z,81.46
2023-01-29T01:48:32.543Z,81.69
2023-01-29T01:50:58.934Z,81.82
2023-01-29T01:53:25.343Z,81.49
2023-01-29T01:55:51.765Z,81.61
2023-01-29T01:58:18.188Z,81.58
2023-01-29T02:00:44.795Z,81.57
2023-01-29T02:03:11.199Z,81.94
2023-01-29T02:05:37.627Z,81.71
2023-01-29T02:08:04.241Z,81.53
2023-01-29T02:10:30.638Z,81.60
2023-01-29T02:12:57.006Z,81.51
2023-01-29T02:15:23.397Z,81.57
2023-01-29T02:17:49.991Z,81.43
2023-01-29T02:20:16.620Z,81.34
2023-01-29T02:22:43.148Z,81.33
2023-01-29T02:25:09.884Z,81.44
2023-01-29T02:27:36.423Z,81.60
2023-01-29T02:30:02.827Z,81.81
2023-01-29T02:32:29.196Z,81.53
2023-01-29T02:34:55.586Z,81.62
2023-01-29T02:37:21.970Z,81.49
2023-01-29T02:39:48.314Z,81.80
2023-01-29T02:42:14.649Z,81.50
2023-01-29T02:44:40.972Z,81.43
2023-01-29T02:47:07.303Z,81.38
2023-01-29T02:49:33.646Z,81.79
2023-01-29T02:51:59.974Z,81.23
2023-01-29T02:54:26.313Z,81.72
2023-01-29T02:56:52.645Z,81.72
2023-01-29T02:59:18.975Z,81.41
2023-01-29T03:01:45.323Z,81.67
2023-01-29T03:04:11.667Z,81.59
2023-01-29T03:06:38.023Z,81.58
2023-01-29T03:09:04.377Z,81.79
2023-01-29T03:11:30.715Z,81.59
2023-01-29T03:13:57.065Z,81.64
2023-01-29T03:16:23.428Z,81.96
2023-01-29T03:18:49.782Z,81.52
2023-01-29T03:21:16.108Z,81.37
2023-01-29T03:23:42.454Z,81.70
2023-01-29T03:26:08.808Z,81.61
2023-01-29T03:28:35.105Z,81.36
2023-01-29T03:31:01.465Z,81.40
2023-01-29T03:33:27.801Z,81.50
2023-01-29T03:35:54.344Z,81.34
2023-01-29T03:38:20.686Z,81.39
2023-01-29T03:40:47.039Z,81.41
2023-01-29T03:43:13.387Z,81.39
2023-01-29T03:45:39.761Z,81.41
2023-01-29T03:48:06.329Z,81.43
2023-01-29T03:50:32.693Z,81.96
2023-01-29T03:52:59.024Z,81.66
2023-01-29T03:55:25.359Z,81.46
2023-01-29T03:57:51.707Z,81.63
2023-01-29T04:00:18.555Z,81.38
2023-01-29T04:02:45.124Z,81.50
2023-01-29T04:05:11.467Z,81.51
2023-01-29T04:07:38.007Z,81.26
2023-01-29T04:10:04.545Z,81.42
2023-01-29T04:12:30.901Z,81.43
2023-01-29T04:14:57.458Z,81.48
2023-01-29T04:17:23.801Z,81.46
2023-01-29T04:19:50.132Z,81.34
2023-01-29T04:22:16.469Z,81.37
2023-01-29T04:24:42.808Z,81.39
2023-01-29T04:27:09.130Z,81.18
2023-01-29T04:29:35.459Z,81.53
2023-01-29T04:32:01.797Z,81.24
2023-01-29T04:34:28.154Z,81.34
2023-01-29T04:36:54.488Z,81.26
2023-01-29T04:39:20.822Z,81.29
2023-01-29T04:41:47.493Z,81.31
2023-01-29T04:44:13.847Z,81.26
2023-01-29T04:46:40.192Z,81.31
2023-01-29T04:49:06.527Z,81.30
2023-01-29T04:51:32.859Z,81.67
2023-01-29T04:53:59.409Z,81.49
2023-01-29T04:56:25.961Z,81.94
2023-01-29T04:58:52.296Z,81.47
2023-01-29T05:01:18.648Z,81.53
2023-01-29T05:03:45.008Z,81.56
2023-01-29T05:06:11.344Z,81.40
2023-01-29T05:08:37.685Z,81.40
2023-01-29T05:11:04.015Z,81.21
2023-01-29T05:13:30.355Z,81.41
2023-01-29T05:15:56.934Z,81.44
2023-01-29T05:18:23.485Z,81.14
2023-01-29T05:20:49.823Z,81.35
2023-01-29T05:23:16.232Z,81.51
2023-01-29T05:25:42.572Z,81.39
2023-01-29T05:28:08.911Z,81.22
2023-01-29T05:30:35.494Z,81.53
2023-01-29T05:33:01.845Z,81.83
2023-01-29T05:35:28.397Z,81.53
2023-01-29T05:37:54.747Z,81.23
2023-01-29T05:40:21.395Z,82.10
2023-01-29T05:42:47.734Z,81.59
2023-01-29T05:45:14.057Z,81.45
2023-01-29T05:47:40.392Z,81.23
2023-01-29T05:50:06.729Z,81.17
2023-01-29T05:52:33.083Z,81.19
2023-01-29T05:54:59.681Z,81.22
2023-01-29T05:57:26.028Z,81.42
2023-01-29T05:59:52.369Z,81.29
2023-01-29T06:02:18.708Z,81.13
2023-01-29T06:04:45.051Z,81.26
2023-01-29T06:07:11.392Z,81.62
2023-01-29T06:09:37.724Z,81.76
2023-01-29T06:12:04.260Z,81.64
2023-01-29T06:14:30.593Z,81.47
2023-01-29T06:16:56.932Z,81.25
2023-01-29T06:19:23.481Z,81.31
2023-01-29T06:21:50.042Z,81.50
2023-01-29T06:24:16.399Z,81.37
2023-01-29T06:26:42.737Z,81.51
2023-01-29T06:29:09.269Z,81.37
2023-01-29T06:31:39.735Z,81.23
2023-01-29T06:34:06.315Z,81.28
2023-01-29T06:36:32.666Z,81.77
2023-01-29T06:38:59.047Z,81.50
2023-01-29T06:41:25.807Z,81.71
2023-01-29T06:43:52.178Z,81.15
2023-01-29T06:46:18.530Z,81.15
2023-01-29T06:48:44.861Z,81.35
2023-01-29T06:51:11.221Z,81.40
2023-01-29T06:53:37.607Z,81.59
2023-01-29T06:56:03.960Z,81.64
2023-01-29T06:58:30.500Z,81.34
2023-01-29T07:00:56.853Z,81.28
2023-01-29T07:03:23.208Z,81.53
2023-01-29T07:05:49.539Z,81.18
2023-01-29T07:08:15.856Z,81.27
2023-01-29T07:10:42.181Z,81.03
2023-01-29T07:13:08.510Z,81.22
2023-01-29T07:15:37.136Z,81.17
2023-01-29T07:18:03.801Z,81.01
2023-01-29T07:20:30.413Z,81.07
2023-01-29T07:22:56.780Z,81.44
2023-01-29T07:25:23.131Z,81.01
2023-01-29T07:27:49.473Z,80.70
2023-01-29T07:30:16.179Z,80.80
2023-01-29T07:32:42.696Z,80.81
2023-01-29T07:35:09.233Z,80.77
2023-01-29T07:37:35.578Z,80.77
2023-01-29T07:40:01.925Z,80.84
2023-01-29T07:42:28.480Z,80.75
2023-01-29T07:44:54.829Z,80.69
2023-01-29T07:47:21.177Z,80.82
2023-01-29T07:49:47.518Z,80.88
2023-01-29T07:52:14.080Z,80.76
2023-01-29T07:54:40.413Z,80.85
2023-01-29T07:57:06.963Z,80.79
2023-01-29T07:59:33.294Z,80.83
2023-01-29T08:01:59.685Z,80.70
2023-01-29T08:04:26.034Z,80.74
2023-01-29T08:06:52.372Z,80.71
2023-01-29T08:09:18.707Z,80.83
2023-01-29T08:11:45.255Z,80.83
2023-01-29T08:14:11.596Z,80.93
2023-01-29T08:16:37.957Z,81.01
2023-01-29T08:19:04.315Z,81.07
2023-01-29T08:21:30.875Z,80.86
2023-01-29T08:23:57.218Z,80.67
2023-01-29T08:26:23.567Z,81.20
2023-01-29T08:28:49.899Z,82.77
2023-01-29T08:31:16.238Z,82.36
2023-01-29T08:33:43.395Z,82.03
2023-01-29T08:36:09.737Z,81.88
2023-01-29T08:38:36.274Z,81.65
2023-01-29T08:41:02.599Z,81.39
2023-01-29T08:43:28.935Z,81.41
2023-01-29T08:45:55.335Z,81.22
2023-01-29T08:48:21.693Z,81.17
2023-01-29T08:50:48.019Z,81.25
2023-01-29T08:53:14.355Z,81.38
2023-01-29T08:55:40.691Z,81.53
2023-01-29T08:58:07.265Z,81.60
2023-01-29T09:00:33.600Z,81.77
2023-01-29T09:03:00.197Z,81.69
2023-01-29T09:05:26.571Z,81.52
2023-01-29T09:07:54.225Z,81.36
2023-01-29T09:10:20.644Z,80.94
2023-01-29T09:12:47.194Z,80.95
2023-01-29T09:15:13.513Z,80.98
2023-01-29T09:17:39.842Z,81.00
2023-01-29T09:20:06.389Z,80.95
2023-01-29T09:22:32.773Z,81.06
2023-01-29T09:24:59.159Z,80.75
2023-01-29T09:27:25.520Z,80.77
2023-01-29T09:29:52.155Z,81.46
2023-01-29T09:32:37.693Z,81.42
2023-01-29T09:35:05.104Z,81.22
2023-01-29T09:37:31.650Z,80.98
2023-01-29T09:39:57.970Z,80.74
2023-01-29T09:42:24.327Z,80.58
2023-01-29T09:44:50.706Z,80.49
2023-01-29T09:47:17.066Z,80.63
2023-01-29T09:49:43.402Z,80.71
2023-01-29T09:52:09.740Z,80.91
2023-01-29T09:54:36.195Z,81.01
2023-01-29T09:57:02.544Z,80.93
2023-01-29T09:59:29.343Z,80.62
2023-01-29T10:01:55.754Z,80.50
2023-01-29T10:04:22.214Z,80.15
2023-01-29T10:06:48.585Z,80.32
2023-01-29T10:09:15.129Z,80.27
2023-01-29T10:11:41.669Z,80.31
2023-01-29T10:14:08.037Z,80.38
2023-01-29T10:16:34.378Z,80.50
2023-01-29T10:19:00.736Z,80.66
2023-01-29T10:21:27.298Z,80.72
2023-01-29T10:23:53.638Z,80.71
2023-01-29T10:26:19.977Z,80.56
2023-01-29T10:28:46.400Z,80.81
2023-01-29T10:31:13.049Z,80.60
2023-01-29T10:33:49.256Z,80.83
2023-01-29T10:36:25.919Z,81.00
2023-01-29T10:38:52.265Z,80.95
2023-01-29T10:41:18.599Z,81.02
2023-01-29T10:43:44.932Z,80.59
2023-01-29T10:46:11.269Z,81.02
2023-01-29T10:48:37.871Z,80.90
2023-01-29T10:51:04.211Z,80.95
2023-01-29T10:53:30.810Z,81.18
2023-01-29T10:55:57.134Z,80.94
2023-01-29T10:58:23.743Z,81.05
2023-01-29T11:00:50.205Z,80.94
2023-01-29T11:03:26.805Z,81.69
2023-01-29T11:05:54.089Z,81.58
2023-01-29T11:08:20.674Z,81.49
2023-01-29T11:10:47.014Z,81.86
2023-01-29T11:13:13.624Z,81.43
2023-01-29T11:15:39.964Z,81.46
2023-01-29T11:18:06.297Z,81.27
2023-01-29T11:20:32.632Z,81.01
2023-01-29T11:22:58.967Z,81.48
2023-01-29T11:25:25.325Z,81.63
2023-01-29T11:27:51.656Z,81.23
2023-01-29T11:30:18.459Z,81.14
2023-01-29T11:32:44.959Z,81.20
2023-01-29T11:35:11.290Z,81.00
2023-01-29T11:37:37.652Z,81.01
2023-01-29T11:40:04.003Z,81.45
2023-01-29T11:42:30.336Z,81.56
2023-01-29T11:44:56.682Z,81.07
2023-01-29T11:47:23.017Z,81.39
2023-01-29T11:49:49.355Z,81.06
2023-01-29T11:52:15.688Z,80.81
2023-01-29T11:54:42.609Z,80.74
2023-01-29T11:57:08.938Z,81.19
2023-01-29T11:59:35.524Z,80.91
2023-01-29T12:02:01.844Z,81.56
2023-01-29T12:04:28.433Z,81.10
2023-01-29T12:06:54.769Z,81.34
2023-01-29T12:09:21.348Z,80.96
2023-01-29T12:11:47.683Z,81.08
2023-01-29T12:14:14.011Z,81.27
2023-01-29T12:16:40.334Z,81.07
2023-01-29T12:19:06.675Z,81.18
2023-01-29T12:21:33.019Z,81.10
2023-01-29T12:23:59.592Z,81.59
2023-01-29T12:26:25.957Z,81.33
2023-01-29T12:28:52.300Z,81.39
2023-01-29T12:31:18.623Z,81.34
2023-01-29T12:33:44.986Z,81.23
2023-01-29T12:36:11.318Z,81.11
2023-01-29T12:38:37.660Z,81.24
2023-01-29T12:41:04.015Z,81.51
2023-01-29T12:43:30.344Z,82.40
2023-01-29T12:45:56.665Z,82.25
2023-01-29T12:48:23.010Z,81.92
2023-01-29T12:50:49.346Z,81.67
2023-01-29T12:53:15.685Z,81.60
2023-01-29T12:55:42.019Z,81.46
2023-01-29T12:58:08.358Z,81.41
2023-01-29T13:00:34.766Z,81.21
2023-01-29T13:03:01.162Z,81.41
2023-01-29T13:05:27.787Z,81.25
2023-01-29T13:07:54.109Z,81.26
2023-01-29T13:10:20.697Z,81.29
2023-01-29T13:12:47.034Z,81.44
2023-01-29T13:15:13.643Z,81.34
2023-01-29T13:17:39.984Z,81.38
2023-01-29T13:20:06.573Z,81.47
2023-01-29T13:22:32.904Z,81.28
2023-01-29T13:25:05.124Z,81.40
2023-01-29T13:27:31.958Z,81.40
2023-01-29T13:29:58.554Z,81.36
2023-01-29T13:32:24.891Z,81.48
2023-01-29T13:34:51.215Z,81.44
2023-01-29T13:37:17.572Z,81.51
2023-01-29T13:39:43.898Z,81.54
2023-01-29T13:42:10.300Z,81.50
2023-01-29T13:44:36.643Z,81.47
2023-01-29T13:47:02.984Z,81.56
2023-01-29T13:49:29.310Z,81.52
2023-01-29T13:51:55.659Z,81.63
2023-01-29T13:54:22.002Z,81.31
2023-01-29T13:56:48.362Z,81.81
2023-01-29T13:59:14.708Z,81.44
2023-01-29T14:01:41.045Z,81.24
2023-01-29T14:04:07.389Z,81.36
2023-01-29T14:06:33.986Z,81.34
2023-01-29T14:09:00.332Z,81.26
2023-01-29T14:11:26.940Z,81.22
2023-01-29T14:13:53.261Z,81.53
2023-01-29T14:16:19.866Z,81.65
2023-01-29T14:18:46.198Z,81.60
2023-01-29T14:21:12.536Z,81.63
2023-01-29T14:23:38.882Z,81.68
2023-01-29T14:26:05.483Z,81.67
2023-01-29T14:28:31.834Z,81.84
2023-01-29T14:30:58.280Z,81.81
2023-01-29T14:33:24.678Z,82.03
2023-01-29T14:35:51.005Z,82.02
2023-01-29T14:38:17.331Z,81.97
2023-01-29T14:40:43.658Z,81.88
2023-01-29T14:43:10.004Z,81.90
2023-01-29T14:45:36.345Z,82.01
2023-01-29T14:48:02.691Z,81.99
2023-01-29T14:50:29.023Z,81.90
2023-01-29T14:52:55.353Z,81.97
2023-01-29T14:55:21.680Z,82.04
2023-01-29T14:57:48.265Z,82.04
2023-01-29T15:00:14.589Z,81.86
2023-01-29T15:02:41.244Z,82.08
2023-01-29T15:05:07.594Z,81.99
2023-01-29T15:07:33.941Z,82.47
2023-01-29T15:10:20.907Z,82.21
2023-01-29T15:12:46.602Z,82.35
2023-01-29T15:15:12.981Z,81.86
2023-01-29T15:17:39.367Z,81.93
2023-01-29T15:20:05.693Z,81.80
2023-01-29T15:22:31.978Z,82.40
2023-01-29T15:24:58.298Z,82.06
2023-01-29T15:27:24.891Z,82.01
2023-01-29T15:29:51.220Z,81.91
2023-01-29T15:32:17.807Z,81.95
2023-01-29T15:34:44.172Z,81.79
2023-01-29T15:37:10.761Z,82.43
2023-01-29T15:39:37.091Z,82.05
2023-01-29T15:42:03.679Z,82.45
2023-01-29T15:44:30.006Z,81.94
2023-01-29T15:46:56.595Z,82.01
2023-01-29T15:49:22.926Z,82.07
2023-01-29T15:51:49.512Z,82.03
2023-01-29T15:54:16.041Z,82.53
2023-01-29T15:56:42.650Z,82.06
2023-01-29T15:59:10.120Z,82.09
2023-01-29T16:01:36.780Z,81.96
2023-01-29T16:04:03.109Z,81.94
2023-01-29T16:06:29.713Z,82.03
2023-01-29T16:08:56.040Z,81.91
2023-01-29T16:11:22.384Z,82.13
2023-01-29T16:13:48.709Z,82.09
2023-01-29T16:16:15.189Z,81.63
2023-01-29T16:18:54.209Z,81.48
2023-01-29T16:21:25.473Z,82.25
2023-01-29T16:23:51.818Z,81.96
2023-01-29T16:26:18.178Z,82.12
2023-01-29T16:28:44.509Z,82.37
2023-01-29T16:31:10.950Z,81.74
2023-01-29T16:33:37.347Z,81.96
2023-01-29T16:36:03.683Z,81.78
2023-01-29T16:38:30.044Z,81.86
2023-01-29T16:40:56.384Z,82.35
2023-01-29T16:43:22.829Z,82.21
2023-01-29T16:45:51.816Z,82.15
2023-01-29T16:48:18.336Z,81.67
2023-01-29T16:50:54.614Z,81.99
2023-01-29T16:53:21.528Z,82.07
2023-01-29T16:55:47.869Z,81.50
2023-01-29T16:58:14.219Z,81.65
2023-01-29T17:00:40.591Z,81.95
2023-01-29T17:03:06.977Z,81.94
2023-01-29T17:05:33.327Z,82.62
2023-01-29T17:07:59.655Z,82.36
2023-01-29T17:10:25.992Z,82.15
2023-01-29T17:12:52.340Z,82.20
2023-01-29T17:15:19.054Z,81.99
2023-01-29T17:17:45.960Z,81.89
2023-01-29T17:20:12.309Z,81.98
2023-01-29T17:22:38.917Z,82.24
2023-01-29T17:25:05.254Z,81.86
2023-01-29T17:27:31.840Z,81.94
2023-01-29T17:29:58.171Z,82.01
2023-01-29T17:32:24.772Z,81.84
2023-01-29T17:35:11.090Z,81.70
2023-01-29T17:37:37.682Z,81.73
2023-01-29T17:40:05.412Z,81.68
2023-01-29T17:42:32.100Z,81.59
2023-01-29T17:44:58.438Z,81.64
2023-01-29T17:47:25.021Z,81.53
2023-01-29T17:49:51.352Z,81.59
2023-01-29T17:52:17.956Z,81.62
2023-01-29T17:54:44.300Z,81.64
2023-01-29T17:57:10.902Z,81.67
2023-01-29T17:59:37.208Z,81.87
2023-01-29T18:02:03.819Z,81.63
2023-01-29T18:04:30.206Z,81.78
2023-01-29T18:06:56.832Z,81.68
2023-01-29T18:09:23.179Z,81.66
2023-01-29T18:11:49.786Z,81.31
2023-01-29T18:14:16.117Z,82.41
2023-01-29T18:16:42.732Z,82.78
2023-01-29T18:19:09.081Z,82.52
2023-01-29T18:21:35.408Z,82.45
2023-01-29T18:24:01.751Z,81.70
2023-01-29T18:26:28.168Z,81.71
2023-01-29T18:28:54.585Z,81.46
2023-01-29T18:31:20.961Z,81.46
2023-01-29T18:33:47.287Z,81.55
2023-01-29T18:36:13.639Z,81.43
2023-01-29T18:38:39.998Z,81.43
2023-01-29T18:41:06.338Z,81.89
2023-01-29T18:43:32.670Z,81.59
2023-01-29T18:45:59.081Z,81.77
2023-01-29T18:48:25.489Z,81.95
2023-01-29T18:50:52.035Z,82.02
2023-01-29T18:53:18.365Z,81.50
2023-01-29T18:55:44.695Z,81.46
2023-01-29T18:58:33.483Z,81.89
2023-01-29T19:00:57.562Z,81.55
2023-01-29T19:03:24.130Z,81.46
2023-01-29T19:05:50.518Z,81.11
2023-01-29T19:08:16.898Z,81.41
2023-01-29T19:10:44.014Z,81.45
2023-01-29T19:13:10.353Z,81.31
2023-01-29T19:15:36.898Z,80.97
2023-01-29T19:18:03.440Z,81.20
2023-01-29T19:20:29.781Z,81.22
2023-01-29T19:22:56.112Z,81.23
2023-01-29T19:25:22.678Z,80.95
2023-01-29T19:27:49.004Z,81.10
2023-01-29T19:30:15.351Z,80.72
2023-01-29T19:32:41.907Z,81.09
2023-01-29T19:35:08.251Z,80.98
2023-01-29T19:37:34.830Z,80.87
2023-01-29T19:40:01.170Z,80.68
2023-01-29T19:42:27.715Z,80.58
2023-01-29T19:44:54.256Z,80.72
2023-01-29T19:47:20.674Z,81.10
2023-01-29T19:49:47.115Z,80.58
2023-01-29T19:52:13.458Z,80.97
2023-01-29T19:54:39.801Z,81.42
2023-01-29T19:57:06.143Z,81.64
2023-01-29T19:59:32.678Z,81.37
2023-01-29T20:01:59.055Z,81.15
2023-01-29T20:04:25.410Z,81.10
2023-01-29T20:06:51.729Z,80.90
2023-01-29T20:09:18.065Z,80.69
2023-01-29T20:11:44.609Z,80.66
2023-01-29T20:14:10.950Z,80.59
2023-01-29T20:16:37.362Z,80.44
2023-01-29T20:19:14.258Z,80.30
2023-01-29T20:21:41.329Z,80.34
2023-01-29T20:24:08.093Z,80.03
2023-01-29T20:26:34.483Z,80.14
2023-01-29T20:29:01.012Z,79.99
2023-01-29T20:31:27.363Z,79.70
2023-01-29T20:33:53.705Z,79.72
2023-01-29T20:36:20.053Z,79.49
2023-01-29T20:38:46.413Z,79.57
2023-01-29T20:41:12.758Z,79.55
2023-01-29T20:43:39.327Z,79.43
2023-01-29T20:46:05.734Z,79.34
2023-01-29T20:48:32.343Z,79.20
2023-01-29T20:50:58.665Z,79.27
2023-01-29T20:53:24.996Z,79.61
2023-01-29T20:55:51.485Z,79.50
2023-01-29T20:58:18.403Z,79.49
2023-01-29T21:00:44.754Z,79.22
2023-01-29T21:03:11.111Z,79.48
2023-01-29T21:05:37.460Z,79.36
2023-01-29T21:08:03.795Z,79.35
2023-01-29T21:10:30.345Z,79.35
2023-01-29T21:12:56.662Z,79.35
2023-01-29T21:15:22.991Z,79.42
2023-01-29T21:17:49.329Z,79.25
2023-01-29T21:20:16.091Z,78.99
2023-01-29T21:22:42.577Z,78.51
2023-01-29T21:25:09.105Z,79.34
2023-01-29T21:27:35.448Z,79.15
2023-01-29T21:30:02.013Z,78.55
2023-01-29T21:32:28.561Z,78.52
2023-01-29T21:34:54.922Z,78.81
2023-01-29T21:37:21.261Z,79.44
2023-01-29T21:39:47.589Z,79.09
2023-01-29T21:42:13.927Z,79.05
2023-01-29T21:44:40.260Z,79.42
2023-01-29T21:47:06.594Z,79.10
2023-01-29T21:49:32.914Z,79.73
2023-01-29T21:51:59.265Z,80.04
2023-01-29T21:54:25.600Z,79.38
2023-01-29T21:56:51.941Z,79.78
2023-01-29T21:59:18.275Z,79.03
2023-01-29T22:01:44.662Z,79.74
2023-01-29T22:04:11.040Z,79.64
2023-01-29T22:06:37.395Z,79.16
2023-01-29T22:09:03.955Z,79.80
2023-01-29T22:11:30.625Z,79.86
2023-01-29T22:13:57.163Z,79.91
2023-01-29T22:16:23.706Z,79.79
2023-01-29T22:18:50.039Z,79.59
2023-01-29T22:21:16.375Z,79.33
2023-01-29T22:23:42.934Z,79.62
2023-01-29T22:26:09.353Z,79.15
2023-01-29T22:28:35.988Z,78.99
2023-01-29T22:31:02.328Z,79.37
2023-01-29T22:33:28.687Z,79.44
2023-01-29T22:35:55.234Z,79.29
2023-01-29T22:38:21.566Z,79.80
2023-01-29T22:40:47.888Z,79.48
2023-01-29T22:43:14.232Z,79.15
2023-01-29T22:45:40.582Z,78.93
2023-01-29T22:48:08.199Z,79.55
2023-01-29T22:50:34.590Z,79.79
2023-01-29T22:53:00.930Z,79.26
2023-01-29T22:55:27.260Z,79.37
2023-01-29T22:57:53.591Z,79.63
2023-01-29T23:00:20.389Z,79.49
2023-01-29T23:02:47.086Z,79.38
2023-01-29T23:05:13.443Z,79.39
2023-01-29T23:07:39.783Z,79.67
2023-01-29T23:10:07.214Z,79.77
2023-01-29T23:12:33.628Z,79.16
2023-01-29T23:14:59.954Z,79.61
2023-01-29T23:17:26.284Z,79.25
2023-01-29T23:19:52.838Z,79.43
2023-01-29T23:22:19.176Z,80.03
2023-01-29T23:24:45.527Z,79.79
2023-01-29T23:27:11.860Z,79.17
2023-01-29T23:29:38.201Z,79.24
2023-01-29T23:32:04.558Z,79.82
2023-01-29T23:34:30.933Z,79.75
2023-01-29T23:36:57.316Z,79.91
2023-01-29T23:39:23.679Z,79.93
2023-01-29T23:41:50.005Z,79.76
2023-01-29T23:44:16.342Z,79.57
2023-01-29T23:46:42.730Z,79.85
2023-01-29T23:49:09.082Z,79.56
2023-01-29T23:51:35.887Z,79.45
2023-01-29T23:54:02.233Z,79.43
2023-01-29T23:56:28.539Z,79.45
2023-01-29T23:58:54.884Z,79.63
